Latest Coastal Weather Observations for Derby

IDW60701

Issued at 1:42 am WST Sunday 1 February 2015 (issued every 10 minutes, with the page automatically refreshed every 10 minutes)

About coastal observations | Map of coastal stations | Coastal observations for WA | Marine services | Other Formats
Station Details ID: 003032 Name: DERBY AERO Lat: -17.37 Lon: 123.66 Height: 6.2 m
Data from the previous 72 hours. | See also: Recent months at Derby
Date/Time
WST
Temp

°C
Wind Pressure Rain
since 9am
mm
Weather Cloud Vis
km
Sea
Height
m
Swell
Dir
 
Speed
knots
Gust
knots
hPa Trend Height
m
Period
s
Dir
01/01:30am 26.8 WSW 6 7 1008.4 - 0.0 - - - - - - -
01/01:00am 26.9 WSW 5 6 1008.6 - 0.0 - - - - - - -
01/12:30am 27.3 WSW 6 7 1008.8 - 0.0 - - - - - - -
01/12:00am 27.5 WSW 7 9 1008.9 - 0.0 - - - - - - -
 
Date/Time
WST
Temp

°C
Wind Pressure Rain
since 9am
mm
Weather Cloud Vis
km
Sea
Height
m
Swell
Dir
 
Speed
knots
Gust
knots
hPa Trend Height
m
Period
s
Dir
31/11:30pm 27.8 WSW 6 8 1009.0 - 0.0 - - - - - - -
31/11:00pm 28.5 WNW 7 11 1009.0 - 0.0 - - - - - - -
31/10:30pm 28.4 NW 5 7 1009.0 - 0.0 - - - - - - -
31/10:00pm 28.6 NNW 7 8 1009.1 - 0.0 - - - - - - -
31/09:30pm 28.9 NNW 6 7 1008.9 - 0.0 - - - - - - -
31/09:00pm 28.8 NNW 6 8 1008.5 - 0.0 - - - - - - -
31/08:30pm 28.7 NNW 6 7 1008.4 - 0.0 - - - - - - -
31/08:00pm 28.9 NW 6 7 1008.1 - 0.0 - - - - - - -
31/07:30pm 29.2 NNW 7 9 1007.8 - 0.0 - - - - - - -
31/07:00pm 29.5 NNW 8 10 1007.3 - 0.0 - - - - - - -
31/06:30pm 29.7 NNW 9 11 1007.0 - 0.0 - - - - - - -
31/06:00pm 30.0 NNW 11 14 1006.4 - 0.0 - - - - - - -
31/05:30pm 31.2 NNW 10 12 1006.1 - 0.0 - - - - - - -
31/05:00pm 32.3 NNW 7 9 1005.9 - 0.0 - - - - - - -
31/04:30pm 32.4 NNW 9 12 1006.0 - 0.0 - - - - - - -
31/04:00pm 33.3 NW 7 12 1006.0 - 0.0 - - - - - - -
31/03:30pm 33.6 SSW 4 7 1006.1 - 0.0 - - - - - - -
31/03:00pm 33.3 SW 4 7 1006.7 - 0.0 - - - - - - -
31/02:30pm 32.6 S 5 9 1006.9 - 0.0 - - - - - - -
31/02:00pm 32.8 SSE 5 9 1007.3 - 0.0 - - - - - - -
31/01:30pm 32.2 SE 5 10 1007.7 - 0.0 - - - - - - -
31/01:00pm 32.3 WSW 5 7 1007.9 - 0.0 - - - - - - -
31/12:30pm 31.4 S 5 9 1008.1 - 0.0 - - - - - - -
31/12:00pm 31.1 S 6 9 1008.7 - 0.0 - - - - - - -
31/11:30am 30.8 S 6 9 1008.9 - 0.0 - - - - - - -
31/11:00am 29.9 S 6 10 1009.3 - 0.0 - - - - - - -
31/10:30am 30.4 S 1 4 1009.6 - 0.0 - - - - - - -
31/10:00am 29.4 E 7 9 1010.0 - 0.0 - - - - - - -
31/09:30am 28.5 ESE 5 7 1010.0 - 0.0 - - - - - - -
31/09:00am 27.9 SE 9 12 1010.4 - 0.2 - - - - - - -
31/08:30am 26.6 SE 10 13 1010.6 - 0.2 - - - - - - -
31/08:00am 26.8 SSE 7 9 1010.6 - 0.2 - - - - - - -
31/07:30am 26.8 S 9 13 1010.4 - 0.2 - - - - - - -
31/07:00am 27.5 S 3 5 1009.8 - 0.2 - - - - - - -
31/06:30am 26.6 CALM 0 0 1009.6 - 0.2 - - - - - - -
31/06:00am 25.7 SSE 3 4 1009.4 - 0.2 - - - - - - -
31/05:30am 25.6 SSE 3 4 1009.1 - 0.2 - - - - - - -
31/05:00am 25.7 SSW 4 5 1008.6 - 0.2 - - - - - - -
31/04:30am 25.5 WSW 4 5 1008.4 - 0.2 - - - - - - -
31/04:00am 25.4 WSW 5 7 1008.2 - 0.2 - - - - - - -
31/03:30am 25.6 W 5 6 1007.9 - 0.2 - - - - - - -
31/03:00am 25.7 W 4 5 1008.3 - 0.2 - - - - - - -
31/02:30am 26.0 WSW 6 7 1008.2 - 0.2 - - - - - - -
31/02:00am 26.3 W 6 7 1008.1 - 0.2 - - - - - - -
31/01:30am 26.4 WNW 5 6 1008.1 - 0.2 - - - - - - -
31/01:00am 26.8 WNW 7 9 1008.1 - 0.2 - - - - - - -
31/12:30am 26.9 WNW 8 10 1008.2 - 0.2 - - - - - - -
31/12:00am 26.9 WNW 7 9 1008.2 - 0.2 - - - - - - -
 
Date/Time
WST
Temp

°C
Wind Pressure Rain
since 9am
mm
Weather Cloud Vis
km
Sea
Height
m
Swell
Dir
 
Speed
knots
Gust
knots
hPa Trend Height
m
Period
s
Dir
30/11:30pm 27.0 WNW 7 8 1008.4 - 0.2 - - - - - - -
30/11:00pm 27.2 NW 7 8 1008.3 - 0.2 - - - - - - -
30/10:30pm 27.3 NW 8 9 1008.4 - 0.2 - - - - - - -
30/10:00pm 27.5 NW 9 10 1008.4 - 0.2 - - - - - - -
30/09:30pm 27.8 WNW 10 12 1008.2 - 0.2 - - - - - - -
30/09:00pm 27.9 N 6 9 1007.8 - 0.2 - - - - - - -
30/08:30pm 27.8 NE 5 7 1007.7 - 0.2 - - - - - - -
30/08:00pm 27.8 N 6 8 1007.2 - 0.2 - - - - - - -
30/07:30pm 28.1 NNE 5 7 1006.9 - 0.2 - - - - - - -
30/07:00pm 28.2 N 6 7 1006.5 - 0.2 - - - - - - -
30/06:30pm 28.1 N 6 8 1006.1 - 0.2 - - - - - - -
30/06:00pm 27.7 NW 8 10 1005.8 - 0.2 - - - - - - -
30/05:30pm 28.8 NNW 8 10 1005.8 - 0.2 - - - - - - -
30/05:00pm 29.2 N 8 10 1005.6 - 0.2 - - - - - - -
30/04:30pm 29.4 N 8 10 1005.7 - 0.2 - - - - - - -
30/04:00pm 28.9 NNW 9 11 1005.8 - 0.2 - - - - - - -
30/03:30pm 30.0 NNW 7 9 1006.0 - 0.2 - - - - - - -
30/03:00pm 30.2 NNW 7 10 1005.9 - 0.2 - - - - - - -
30/02:30pm 29.2 NW 6 7 1006.4 - 0.2 - - - - - - -
30/02:00pm 29.8 NW 6 8 1006.6 - 0.2 - - - - - - -
30/01:30pm 29.6 NNW 5 8 1006.8 - 0.2 - - - - - - -
30/01:00pm 29.7 N 5 8 1007.1 - 0.2 - - - - - - -
30/12:30pm 29.1 NNE 6 8 1007.4 - 0.2 - - - - - - -
30/12:00pm 28.9 NNE 5 8 1007.9 - 0.0 - - - - - - -
30/11:30am 28.5 NE 6 8 1008.5 - 0.0 - - - - - - -
30/11:00am 27.7 NE 7 10 1008.9 - 0.0 - - - - - - -
30/10:30am 26.7 NE 7 9 1009.3 - 0.0 - - - - - - -
30/10:00am 25.9 NE 5 8 1009.6 - 0.0 - - - - - - -
30/09:30am 25.1 NNE 5 6 1009.6 - 0.0 - - - - - - -
30/09:00am 24.6 S 5 9 1010.0 - 1.8 - - - - - - -
30/08:30am 24.1 NNE 6 8 1009.7 - 1.8 - - - - - - -
30/08:00am 23.7 NE 5 7 1009.6 - 1.8 - - - - - - -
30/07:30am 23.3 ENE 5 8 1009.4 - 1.8 - - - - - - -
30/07:00am 22.9 ESE 8 9 1009.3 - 1.8 - - - - - - -
30/06:30am 22.8 ESE 11 14 1009.0 - 1.8 - - - - - - -
30/06:00am 23.1 SE 11 15 1008.6 - 1.2 Rain - - - - - -
30/05:30am 23.4 SE 14 19 1008.5 - 0.4 - - - - - - -
30/05:03am 25.3 S 8 18 1008.0 - 0.0 - - - - - - -
30/05:00am 26.7 SSW 5 7 1007.7 - 0.0 - - - - - - -
30/04:30am 26.8 S 1 5 1007.4 - 0.0 - - - - - - -
30/04:00am 26.8 S 1 3 1007.1 - 0.0 - - - - - - -
30/03:30am 26.7 SW 3 5 1006.9 - 0.0 - - - - - - -
30/03:00am 26.5 W 6 8 1006.4 - 0.0 - - - - - - -
30/02:30am 26.5 WSW 6 7 1006.1 - 0.0 - - - - - - -
30/02:00am 26.7 WSW 5 6 1006.1 - 0.0 - - - - - - -
30/01:30am 27.0 W 5 6 1006.5 - 0.0 - - - - - - -
30/01:00am 27.2 WSW 5 6 1006.6 - 0.0 - - - - - - -
30/12:30am 27.3 W 7 9 1006.6 - 0.0 - - - - - - -
30/12:00am 27.0 W 5 7 1006.8 - 0.0 - - - - - - -
 
Date/Time
WST
Temp

°C
Wind Pressure Rain
since 9am
mm
Weather Cloud Vis
km
Sea
Height
m
Swell
Dir
 
Speed
knots
Gust
knots
hPa Trend Height
m
Period
s
Dir
29/11:30pm 26.9 SSW 3 4 1007.3 - 0.0 - - - - - - -
29/11:00pm 27.4 SW 2 4 1007.4 - 0.0 - - - - - - -
29/10:30pm 27.9 CALM 0 0 1007.4 - 0.0 - - - - - - -
29/10:00pm 27.7 W 5 6 1007.4 - 0.0 - - - - - - -
29/09:30pm 27.6 W 6 8 1007.2 - 0.0 - - - - - - -
29/09:00pm 27.5 WNW 6 9 1006.8 - 0.0 - - - - - - -
29/08:30pm 27.4 W 7 9 1006.6 - 0.0 - - - - - - -
29/08:00pm 27.8 WSW 10 13 1006.5 - 0.0 - - - - - - -
29/07:30pm 28.8 W 8 11 1006.5 - 0.0 - - - - - - -
29/07:00pm 29.4 WNW 9 12 1005.6 - 0.0 - - - - - - -
29/06:30pm 29.7 WNW 11 14 1005.2 - 0.0 - - - - - - -
29/06:00pm 30.5 NW 12 14 1005.0 - 0.0 - - - - - - -
29/05:30pm 30.8 NNW 12 15 1004.1 - 0.0 - - - - - - -
29/05:00pm 32.8 NNW 4 9 1003.8 - 0.0 - - - - - - -
29/04:30pm 33.8 WSW 3 6 1003.5 - 0.0 - - - - - - -
29/04:00pm 33.5 WNW 3 5 1003.5 - 0.0 - - - - - - -
29/03:30pm 33.1 SW 5 6 1003.8 - 0.0 - - - - - - -
29/03:00pm 33.1 SSW 2 5 1004.0 - 0.0 - - - - - - -
29/02:30pm 33.3 SW 6 8 1004.4 - 0.0 - - - - - - -
29/02:00pm 32.4 SW 5 8 1004.7 - 0.0 - - - - - - -
29/01:30pm 32.0 S 3 9 1004.8 - 0.0 - - - - - - -
29/01:00pm 31.4 SSW 5 7 1005.1 - 0.0 - - - - - - -
29/12:30pm 30.7 S 5 7 1005.5 - 0.0 - - - - - - -
29/12:00pm 31.0 SSW 5 7 1006.0 - 0.0 - - - - - - -
29/11:30am 30.2 WSW 6 9 1006.4 - 0.0 - - - - - - -
29/11:00am 29.7 WSW 5 7 1006.9 - 0.0 - - - - - - -
29/10:30am 28.4 NW 5 7 1007.2 - 0.0 - - - - - - -
29/10:00am 27.6 NNW 5 8 1007.5 - 0.0 - - - - - - -
29/09:30am 26.8 WNW 4 6 1007.8 - 0.0 - - - - - - -
29/09:00am 26.5 WNW 4 6 1008.0 - 19.8 - - - - - - -
29/08:30am 25.7 NW 6 7 1007.2 - 19.8 - - - - - - -
29/08:00am 24.8 WSW 5 7 1007.6 - 19.8 - - - - - - -
29/07:30am 24.3 WSW 6 9 1007.6 - 19.8 - - - - - - -
29/07:00am 23.7 W 10 13 1007.4 - 19.8 - - - - - - -
29/06:30am 23.2 CALM 0 0 1006.6 - 19.8 - - - - - - -
29/06:00am 22.8 ENE 5 7 1006.8 - 19.6 Recent precip. - - - - - -
29/05:30am 22.6 SE 9 12 1007.2 - 18.4 - - - - - - -
29/05:00am 22.4 SE 8 11 1007.4 - 15.6 - - - - - - -
29/04:30am 22.4 ESE 9 13 1007.4 - 14.4 - - - - - - -
29/04:00am 22.4 SSE 14 20 1007.6 - 8.2 - - - - - - -
29/03:38am 24.0 SSE 15 25 1007.3 - 1.8 - - - - - - -
29/03:30am 24.7 S 13 21 1007.1 - 1.8 - - - - - - -
29/03:00am 24.5 ESE 4 6 1005.7 - 1.8 - - - - - - -
29/02:30am 24.3 ESE 4 6 1005.5 - 1.8 - - - - - - -
29/02:00am 24.3 NE 7 10 1005.7 - 1.8 - - - - - - -

Other Formats:

Comma delimited format used in spreadsheet applications
http://www.bom.gov.au/fwo/IDW60701/IDW60701.95205.axf

JavaScript Object Notation format (JSON) in row-major order
http://www.bom.gov.au/fwo/IDW60701/IDW60701.95205.json